Time;durP1;ratioP1;P1;durP2;ratioP2;P2;SDS_P1;SDS_P2;PMS_P1;PMS_P2;Temp;Humidity;BMP_temperature;BMP_pressure;BME280_temperature;BME280_humidity;BME280_pressure;Samples;Min_cycle;Max_cycle;Signal;HPM_P1;HPM_P2
2022/09/01 00:00:20;;;;;;;1.70;1.10;;;;;;;11.41;71.97;101037.30;83492;1346;22610;-73
2022/09/01 00:03:51;;;;;;;2.70;1.00;;;;;;;11.31;72.23;101036.39;83664;1342;22813;-73
2022/09/01 00:06:10;;;;;;;4.10;2.30;;;;;;;11.22;72.41;101034.05;83619;1347;26610;-74
2022/09/01 00:08:34;;;;;;;1.80;1.30;;;;;;;11.17;72.66;101038.04;83547;1347;22629;-73
2022/09/01 00:10:52;;;;;;;2.40;1.10;;;;;;;11.11;72.78;101036.12;83536;1346;22608;-70
2022/09/01 00:13:12;;;;;;;2.40;2.00;;;;;;;11.04;72.86;101033.67;83650;1344;22968;-69
2022/09/01 00:15:26;;;;;;;3.10;1.20;;;;;;;10.98;73.17;101035.98;83575;1348;24408;-72
2022/09/01 00:17:41;;;;;;;1.80;1.20;;;;;;;10.94;73.29;101037.66;83582;1345;22629;-72
2022/09/01 00:19:52;;;;;;;2.90;1.00;;;;;;;10.87;73.47;101036.29;83648;1339;22627;-73
2022/09/01 00:22:08;;;;;;;2.00;0.90;;;;;;;10.80;73.77;101035.95;83542;1346;22745;-67
2022/09/01 00:24:24;;;;;;;1.20;1.00;;;;;;;10.74;73.95;101038.58;83521;1346;22607;-69
2022/09/01 00:26:40;;;;;;;2.00;0.80;;;;;;;10.67;74.08;101040.16;83509;1346;22621;-69
2022/09/01 00:28:57;;;;;;;4.40;2.00;;;;;;;10.61;74.15;101041.21;83648;1344;22607;-69
2022/09/01 00:31:08;;;;;;;1.70;1.00;;;;;;;10.55;74.33;101042.77;83637;1347;22606;-72
2022/09/01 00:33:18;;;;;;;2.60;1.20;;;;;;;10.49;74.56;101042.41;83620;1347;25365;-72
2022/09/01 00:35:30;;;;;;;0.80;0.80;;;;;;;10.43;74.69;101038.39;83633;1344;22764;-70
2022/09/01 00:38:01;;;;;;;1.00;0.80;;;;;;;10.37;74.75;101036.45;83467;1345;22640;-71
2022/09/01 00:40:20;;;;;;;3.80;1.00;;;;;;;10.29;75.14;101035.77;83630;1343;24289;-70
2022/09/01 00:42:33;;;;;;;2.80;0.90;;;;;;;10.23;75.33;101033.48;83532;1345;24438;-73
2022/09/01 00:44:46;;;;;;;8.20;0.90;;;;;;;10.18;75.56;101033.43;83631;1345;22771;-73
2022/09/01 00:47:08;;;;;;;2.40;0.80;;;;;;;10.12;75.68;101038.11;83672;1345;22616;-69
2022/09/01 00:49:24;;;;;;;0.90;0.80;;;;;;;10.05;75.98;101037.92;83656;1344;22603;-70
2022/09/01 00:56:47;;;;;;;3.20;0.80;;;;;;;9.85;76.49;101029.17;71259;1343;943842;-72
2022/09/01 00:59:05;;;;;;;2.40;0.80;;;;;;;9.81;76.67;101029.63;83558;1346;22740;-73
2022/09/01 01:01:19;;;;;;;2.50;0.60;;;;;;;9.77;76.79;101030.60;83546;1343;25282;-73
2022/09/01 01:03:38;;;;;;;13.90;2.00;;;;;;;9.73;77.03;101031.73;83568;1347;24270;-68
2022/09/01 01:05:56;;;;;;;1.60;1.00;;;;;;;9.70;77.13;101032.69;83566;1346;22676;-69
2022/09/01 01:08:30;;;;;;;4.60;1.10;;;;;;;9.65;77.37;101033.50;83587;1346;22977;-74
2022/09/01 01:10:50;;;;;;;3.50;1.60;;;;;;;9.60;77.51;101032.05;83569;1346;22675;-72
2022/09/01 01:13:14;;;;;;;2.80;1.00;;;;;;;9.57;77.81;101035.61;83508;1347;25355;-69
2022/09/01 01:15:40;;;;;;;1.40;1.20;;;;;;;9.53;77.81;101033.78;83549;1345;22626;-70
2022/09/01 01:17:53;;;;;;;1.80;0.60;;;;;;;9.49;78.05;101036.32;83559;1345;22646;-70
2022/09/01 01:23:04;;;;;;;1.50;0.70;;;;;;;9.41;78.25;101036.15;83554;1346;22605;-68
2022/09/01 01:25:17;;;;;;;4.60;0.70;;;;;;;9.38;78.39;101035.88;83558;1338;22621;-69
2022/09/01 01:27:28;;;;;;;3.10;0.70;;;;;;;9.34;78.62;101035.07;83551;1349;22743;-70
2022/09/01 01:29:40;;;;;;;1.70;0.60;;;;;;;9.32;78.83;101035.14;83566;1347;22653;-71
2022/09/01 01:31:52;;;;;;;1.30;0.60;;;;;;;9.28;79.02;101034.86;83567;1345;25014;-69
2022/09/01 01:34:06;;;;;;;2.10;0.60;;;;;;;9.25;79.15;101034.77;83565;1342;22629;-69
2022/09/01 01:36:29;;;;;;;1.00;0.60;;;;;;;9.21;79.14;101031.55;83560;1345;22665;-69
2022/09/01 01:38:42;;;;;;;1.50;0.70;;;;;;;9.17;79.17;101030.92;83559;1345;22744;-69
2022/09/01 01:40:56;;;;;;;0.70;0.70;;;;;;;9.14;79.28;101028.91;83558;1341;22622;-70
2022/09/01 01:43:06;;;;;;;0.80;0.70;;;;;;;9.11;79.44;101024.12;83565;1345;22620;-73
2022/09/01 01:45:18;;;;;;;3.10;1.40;;;;;;;9.09;79.49;101027.28;83535;1344;22963;-73
2022/09/01 01:47:28;;;;;;;2.80;1.30;;;;;;;9.05;79.55;101026.31;83591;1344;22643;-72
2022/09/01 01:49:42;;;;;;;1.10;0.80;;;;;;;9.01;79.43;101025.00;83558;1341;22613;-72
2022/09/01 01:51:54;;;;;;;1.30;0.50;;;;;;;8.98;79.73;101032.38;83542;1345;22800;-71
2022/09/01 01:54:06;;;;;;;1.70;0.80;;;;;;;8.95;79.86;101035.05;83554;1345;25495;-71
2022/09/01 01:56:21;;;;;;;1.40;0.60;;;;;;;8.92;79.63;101033.20;83555;1347;22616;-73
2022/09/01 01:58:33;;;;;;;1.00;0.70;;;;;;;8.89;79.85;101035.01;83554;1345;24161;-73
2022/09/01 02:00:46;;;;;;;1.30;0.60;;;;;;;8.86;79.89;101034.37;83517;1346;24261;-73
2022/09/01 02:02:58;;;;;;;1.60;0.70;;;;;;;8.83;79.71;101034.27;83568;1328;24286;-70
2022/09/01 02:05:11;;;;;;;0.80;0.70;;;;;;;8.77;79.91;101039.58;83551;1347;22627;-71
2022/09/01 02:07:21;;;;;;;1.30;0.90;;;;;;;8.73;79.90;101040.19;83576;1343;25323;-70
2022/09/01 02:09:32;;;;;;;2.40;0.80;;;;;;;8.68;79.96;101038.36;83533;1344;22680;-69
2022/09/01 02:11:44;;;;;;;2.50;0.80;;;;;;;8.64;80.33;101032.36;83595;1343;22635;-72
2022/09/01 02:13:56;;;;;;;1.80;1.40;;;;;;;8.63;80.18;101030.99;83601;1346;22659;-72
2022/09/01 02:16:12;;;;;;;1.10;0.80;;;;;;;8.61;80.39;101029.98;83546;1345;24214;-72
2022/09/01 02:18:32;;;;;;;2.00;1.10;;;;;;;8.57;80.32;101029.20;83554;1346;22846;-70
2022/09/01 02:20:50;;;;;;;1.20;1.10;;;;;;;8.55;80.72;101026.10;83539;1344;22595;-70
2022/09/01 02:23:09;;;;;;;1.90;1.50;;;;;;;8.52;80.61;101025.46;83572;1341;22708;-70
2022/09/01 02:25:28;;;;;;;1.10;0.90;;;;;;;8.49;80.56;101023.95;83511;1347;25308;-70
2022/09/01 02:27:43;;;;;;;2.10;1.10;;;;;;;8.46;80.51;101021.40;83577;1346;22670;-68
2022/09/01 02:29:57;;;;;;;2.60;1.20;;;;;;;8.43;80.61;101024.25;83558;1346;24303;-70
2022/09/01 02:32:10;;;;;;;1.80;0.80;;;;;;;8.42;80.84;101027.58;83551;1345;26515;-70
2022/09/01 02:34:27;;;;;;;3.10;1.80;;;;;;;8.41;80.82;101022.55;83540;1346;23980;-71
2022/09/01 02:36:47;;;;;;;1.70;1.10;;;;;;;8.38;80.78;101023.11;83561;1347;22608;-74
2022/09/01 02:39:02;;;;;;;2.10;1.20;;;;;;;8.34;81.10;101021.27;83556;1347;22619;-73
2022/09/01 02:41:18;;;;;;;1.80;1.00;;;;;;;8.29;81.03;101022.04;83563;1346;26600;-72
2022/09/01 02:43:30;;;;;;;2.30;1.10;;;;;;;8.25;80.85;101024.70;83558;1345;22581;-74
2022/09/01 02:45:43;;;;;;;2.20;1.10;;;;;;;8.23;81.00;101024.58;83541;1344;22718;-74
2022/09/01 02:48:00;;;;;;;2.10;1.30;;;;;;;8.19;81.14;101024.65;83571;1343;24291;-74
2022/09/01 02:50:18;;;;;;;4.50;1.20;;;;;;;8.16;81.12;101031.83;83578;1346;22625;-73
2022/09/01 02:52:39;;;;;;;4.00;1.10;;;;;;;8.13;81.13;101031.87;83598;1345;22605;-70
2022/09/01 02:54:58;;;;;;;2.00;1.30;;;;;;;8.09;81.14;101033.33;83553;1345;22643;-73
2022/09/01 02:57:11;;;;;;;3.50;1.50;;;;;;;8.05;81.40;101031.84;83580;1344;22622;-70
2022/09/01 02:59:25;;;;;;;3.40;1.10;;;;;;;8.02;81.25;101038.84;83545;1341;22637;-73
2022/09/01 03:01:38;;;;;;;3.70;1.20;;;;;;;8.01;81.33;101036.24;83519;1345;22649;-71
2022/09/01 03:03:48;;;;;;;2.00;1.00;;;;;;;7.99;81.27;101034.73;83541;1346;23977;-72
2022/09/01 03:05:58;;;;;;;1.80;1.50;;;;;;;7.96;81.27;101037.39;83560;1346;25401;-71
2022/09/01 03:08:15;;;;;;;3.10;1.00;;;;;;;7.93;81.54;101037.78;83537;1347;25457;-70
2022/09/01 03:10:35;;;;;;;2.00;1.10;;;;;;;7.92;81.42;101038.67;83551;1347;22621;-67
2022/09/01 03:12:48;;;;;;;3.90;1.30;;;;;;;7.89;81.33;101037.67;83597;1347;22616;-70
2022/09/01 03:15:07;;;;;;;1.50;1.00;;;;;;;7.87;81.61;101035.45;83550;1346;24049;-70
2022/09/01 03:17:20;;;;;;;2.00;1.00;;;;;;;7.85;81.85;101034.09;83554;1345;22614;-73
2022/09/01 03:19:44;;;;;;;1.60;1.50;;;;;;;7.83;81.91;101032.73;83563;1346;22641;-72
2022/09/01 03:21:58;;;;;;;2.10;1.30;;;;;;;7.80;82.13;101034.17;83560;1345;22902;-68
2022/09/01 03:24:11;;;;;;;1.90;1.20;;;;;;;7.75;81.82;101034.78;83558;1345;22645;-69
2022/09/01 03:26:25;;;;;;;1.30;1.20;;;;;;;7.72;81.96;101037.59;83179;1345;552141;-71
2022/09/01 03:28:38;;;;;;;4.30;1.10;;;;;;;7.68;82.12;101039.39;83541;1347;22640;-72
2022/09/01 03:30:53;;;;;;;3.90;1.20;;;;;;;7.65;82.05;101038.92;83539;1347;25466;-71
2022/09/01 03:33:07;;;;;;;1.50;1.40;;;;;;;7.60;82.09;101043.86;83558;1345;22621;-69
2022/09/01 03:35:19;;;;;;;2.60;1.80;;;;;;;7.57;82.13;101049.11;83558;1345;22947;-69
2022/09/01 03:37:30;;;;;;;1.60;1.40;;;;;;;7.54;82.17;101050.90;83557;1347;22880;-73
2022/09/01 03:39:40;;;;;;;3.20;1.40;;;;;;;7.51;82.25;101052.31;83579;1346;22664;-72
2022/09/01 03:41:56;;;;;;;2.20;1.10;;;;;;;7.49;82.26;101051.31;83562;1346;22643;-69
2022/09/01 03:44:15;;;;;;;2.40;1.30;;;;;;;7.47;82.30;101053.42;83565;1345;24475;-69
2022/09/01 03:46:25;;;;;;;3.00;1.50;;;;;;;7.44;82.44;101052.59;83577;1341;22626;-72
2022/09/01 03:48:39;;;;;;;2.50;1.10;;;;;;;7.41;82.46;101051.23;83560;1345;25469;-72
2022/09/01 03:50:53;;;;;;;1.20;1.10;;;;;;;7.37;82.32;101044.71;83542;1347;24354;-73
2022/09/01 03:53:04;;;;;;;1.10;1.00;;;;;;;7.34;82.28;101046.48;83544;1344;22706;-72
2022/09/01 03:55:17;;;;;;;2.80;0.90;;;;;;;7.33;82.36;101049.62;83534;1342;23094;-74
2022/09/01 03:57:28;;;;;;;2.80;1.20;;;;;;;7.32;82.63;101045.99;83514;1345;23120;-70
2022/09/01 03:59:44;;;;;;;1.30;0.80;;;;;;;7.32;82.79;101042.36;83540;1347;24413;-70
2022/09/01 04:01:56;;;;;;;1.80;1.00;;;;;;;7.31;82.55;101047.06;83577;1344;22624;-71
2022/09/01 04:04:12;;;;;;;1.10;1.00;;;;;;;7.30;82.74;101042.04;83584;1349;25287;-71
2022/09/01 04:06:34;;;;;;;1.60;1.20;;;;;;;7.30;83.12;101042.21;83532;1345;22611;-70
2022/09/01 04:08:55;;;;;;;1.20;1.00;;;;;;;7.30;83.11;101040.66;83505;1347;23955;-70
2022/09/01 04:11:22;;;;;;;2.00;1.20;;;;;;;7.31;83.39;101042.20;83474;1347;22741;-70
2022/09/01 04:13:42;;;;;;;1.80;1.00;;;;;;;7.31;83.45;101040.99;83558;1344;22663;-70
2022/09/01 04:15:56;;;;;;;1.40;0.90;;;;;;;7.32;83.74;101045.98;83539;1344;22660;-70
2022/09/01 04:18:19;;;;;;;1.80;0.80;;;;;;;7.36;83.74;101045.78;83540;1338;22622;-72
2022/09/01 04:20:38;;;;;;;2.10;1.10;;;;;;;7.39;84.02;101045.55;83536;1344;22609;-73
2022/09/01 04:22:54;;;;;;;1.20;1.00;;;;;;;7.41;84.20;101042.04;83555;1342;22734;-72
2022/09/01 04:25:08;;;;;;;1.40;1.10;;;;;;;7.46;84.27;101044.23;83593;1344;24282;-73
2022/09/01 04:27:21;;;;;;;1.60;1.50;;;;;;;7.55;84.50;101035.94;83554;1347;22619;-70
2022/09/01 04:29:33;;;;;;;1.40;1.30;;;;;;;7.90;85.21;101031.75;83353;1349;22865;-70
2022/09/01 04:31:52;;;;;;;3.10;1.00;;;;;;;8.24;85.33;101038.11;83543;1347;22598;-69
2022/09/01 04:34:12;;;;;;;1.70;1.20;;;;;;;8.29;84.62;101037.51;83508;1346;22631;-70
2022/09/01 04:36:28;;;;;;;1.70;1.30;;;;;;;8.33;84.34;101037.11;83468;1345;22724;-72
2022/09/01 04:38:39;;;;;;;2.10;1.10;;;;;;;8.35;84.18;101037.41;83538;1345;22931;-71
2022/09/01 04:40:56;;;;;;;2.00;1.40;;;;;;;8.38;84.15;101037.40;83527;1345;22625;-72
2022/09/01 04:43:09;;;;;;;2.80;1.10;;;;;;;8.50;84.65;101036.27;83497;1343;24280;-72
2022/09/01 04:45:28;;;;;;;4.60;2.00;;;;;;;8.71;85.45;101036.92;83538;1341;22641;-73
2022/09/01 04:47:42;;;;;;;4.80;2.00;;;;;;;8.84;85.28;101039.62;83549;1344;24292;-71
2022/09/01 04:49:56;;;;;;;2.20;1.40;;;;;;;8.92;84.95;101039.13;83543;1344;22609;-73
2022/09/01 04:52:07;;;;;;;1.50;1.20;;;;;;;9.05;85.17;101042.14;83513;1345;22928;-72
2022/09/01 04:54:22;;;;;;;2.50;1.10;;;;;;;9.17;85.14;101040.52;83487;1345;22671;-72
2022/09/01 04:56:35;;;;;;;1.90;1.20;;;;;;;9.22;84.85;101042.14;83544;1346;22602;-71
2022/09/01 04:58:46;;;;;;;3.30;1.40;;;;;;;9.27;85.01;101042.38;83438;1346;22596;-72
2022/09/01 05:00:56;;;;;;;1.50;1.30;;;;;;;9.34;84.86;101040.48;83486;1346;22619;-72
2022/09/01 05:03:09;;;;;;;2.60;1.70;;;;;;;9.43;85.19;101038.55;83524;1344;22596;-69
2022/09/01 05:05:22;;;;;;;3.10;1.60;;;;;;;9.50;85.05;101040.80;83489;1346;24442;-70
2022/09/01 05:07:36;;;;;;;4.00;1.60;;;;;;;9.60;85.20;101040.08;83526;1344;22611;-72
2022/09/01 05:09:48;;;;;;;1.60;1.20;;;;;;;9.70;85.11;101037.39;83532;1344;22606;-73
2022/09/01 05:12:09;;;;;;;3.10;1.10;;;;;;;9.79;85.03;101035.77;83517;1344;22927;-72
2022/09/01 05:14:20;;;;;;;1.20;1.10;;;;;;;9.90;85.12;101036.39;83527;1345;22871;-72
2022/09/01 05:16:33;;;;;;;7.80;1.70;;;;;;;9.99;84.90;101034.96;83475;1347;22659;-71
2022/09/01 05:18:46;;;;;;;1.30;1.20;;;;;;;10.08;84.99;101036.64;83487;1349;22846;-74
2022/09/01 05:20:56;;;;;;;2.00;1.10;;;;;;;10.18;85.09;101039.52;83499;1347;22701;-73
2022/09/01 05:23:11;;;;;;;2.00;1.10;;;;;;;10.29;84.94;101041.02;83515;1347;24427;-70
2022/09/01 05:25:28;;;;;;;2.40;1.20;;;;;;;10.41;85.00;101044.54;83540;1343;22650;-69
2022/09/01 05:27:48;;;;;;;4.20;1.50;;;;;;;10.51;84.95;101045.65;83501;1345;22623;-70
2022/09/01 05:30:00;;;;;;;3.00;1.50;;;;;;;10.72;85.33;101046.46;83530;1341;22609;-69
2022/09/01 05:32:11;;;;;;;0.90;0.90;;;;;;;11.43;88.01;101043.34;83508;1344;22978;-71
2022/09/01 05:34:25;;;;;;;2.00;1.10;;;;;;;12.72;90.21;101036.23;83520;1346;22607;-73
2022/09/01 05:36:44;;;;;;;2.90;1.20;;;;;;;14.30;88.54;101032.64;83570;1346;22645;-70
2022/09/01 05:39:01;;;;;;;2.10;1.10;;;;;;;16.02;81.24;101025.77;83548;1346;22598;-68
2022/09/01 05:41:18;;;;;;;1.20;0.80;;;;;;;17.31;75.04;101025.48;83502;1346;22641;-70
2022/09/01 05:43:32;;;;;;;2.60;1.50;;;;;;;18.49;69.75;101028.20;83546;1344;22720;-71
2022/09/01 05:45:44;;;;;;;2.20;1.20;;;;;;;19.51;64.27;101024.11;83536;1341;22869;-70
2022/09/01 05:47:55;;;;;;;1.40;0.90;;;;;;;20.39;61.14;101016.35;83590;1346;22638;-73
2022/09/01 05:50:09;;;;;;;1.70;1.00;;;;;;;21.26;58.27;101012.45;83535;1346;22630;-73
2022/09/01 05:52:24;;;;;;;2.50;0.90;;;;;;;22.16;54.39;101012.20;83563;1346;22621;-73
2022/09/01 05:54:34;;;;;;;1.50;1.10;;;;;;;22.67;51.44;101013.40;83540;1349;22780;-73
2022/09/01 05:56:46;;;;;;;3.50;0.90;;;;;;;22.94;49.94;101010.94;83549;1346;22632;-72
2022/09/01 05:58:58;;;;;;;2.70;0.90;;;;;;;23.14;48.70;101013.05;83551;1346;25423;-73
2022/09/01 06:01:21;;;;;;;2.40;1.00;;;;;;;23.37;48.47;101015.65;83509;1345;22877;-74
2022/09/01 06:03:40;;;;;;;5.00;0.80;;;;;;;23.93;46.93;101014.09;83460;1345;25397;-73
2022/09/01 06:06:08;;;;;;;5.70;0.90;;;;;;;24.51;45.10;101015.42;83524;1345;25968;-73
2022/09/01 06:08:21;;;;;;;2.90;0.90;;;;;;;25.20;44.32;101010.98;83524;1349;24134;-73
2022/09/01 06:10:40;;;;;;;4.00;1.00;;;;;;;25.68;42.13;101013.04;83534;1346;22653;-73
2022/09/01 06:13:03;;;;;;;3.10;1.10;;;;;;;26.23;40.80;101014.55;83513;1345;24132;-70
2022/09/01 06:15:17;;;;;;;2.00;0.90;;;;;;;26.61;40.54;101015.80;83566;1345;22673;-69
2022/09/01 06:17:29;;;;;;;3.60;1.10;;;;;;;27.26;38.46;101010.08;83559;1346;22732;-69
2022/09/01 06:19:41;;;;;;;1.00;0.70;;;;;;;27.62;38.41;101004.91;83559;1342;22606;-70
2022/09/01 06:21:53;;;;;;;3.20;0.60;;;;;;;27.67;37.40;101001.86;83538;1346;22775;-71
2022/09/01 06:24:16;;;;;;;2.50;0.80;;;;;;;27.84;36.75;101002.58;83534;1344;22883;-74
2022/09/01 06:26:32;;;;;;;1.70;1.20;;;;;;;28.07;35.77;101003.41;83568;1340;22636;-72
2022/09/01 06:28:54;;;;;;;2.90;1.10;;;;;;;27.98;35.19;101002.39;83549;1343;25515;-71
2022/09/01 06:31:24;;;;;;;1.60;0.80;;;;;;;27.34;35.06;101008.41;83547;1347;24375;-70
2022/09/01 06:33:40;;;;;;;1.50;1.00;;;;;;;26.37;35.94;101012.44;83549;1346;22641;-73
2022/09/01 06:35:59;;;;;;;3.50;0.80;;;;;;;25.47;36.74;101009.73;83532;1346;24164;-73
2022/09/01 06:38:18;;;;;;;4.70;1.10;;;;;;;24.60;37.44;101013.90;83570;1342;22631;-70
2022/09/01 06:40:32;;;;;;;2.00;1.00;;;;;;;23.79;38.73;101014.14;83561;1345;24508;-70
2022/09/01 06:42:49;;;;;;;1.20;0.60;;;;;;;23.30;40.34;101019.84;83535;1347;22607;-70
2022/09/01 06:45:27;;;;;;;1.90;0.60;;;;;;;22.89;40.75;101021.98;83587;1347;22624;-70
2022/09/01 06:47:46;;;;;;;2.80;0.80;;;;;;;22.24;41.26;101028.65;83568;1345;22635;-76
2022/09/01 06:49:58;;;;;;;1.60;0.40;;;;;;;21.77;41.86;101025.66;83498;1346;22602;-77
2022/09/01 06:52:24;;;;;;;0.50;0.40;;;;;;;21.44;43.22;101030.02;83563;1345;22600;-72
2022/09/01 06:54:42;;;;;;;1.70;0.70;;;;;;;21.13;43.72;101029.17;83530;1341;22660;-73
2022/09/01 06:57:03;;;;;;;0.60;0.40;;;;;;;20.90;44.28;101021.65;83469;1346;24835;-72
2022/09/01 07:03:14;;;;;;;4.20;0.60;;;;;;;20.71;44.63;101025.80;83531;1347;22683;-70
2022/09/01 07:05:30;;;;;;;4.50;0.60;;;;;;;20.53;44.84;101025.81;83554;1341;22612;-71
2022/09/01 07:07:50;;;;;;;0.70;0.40;;;;;;;20.47;45.36;101027.10;83563;1342;22716;-77
2022/09/01 07:10:02;;;;;;;1.00;0.50;;;;;;;20.72;45.26;101027.36;83547;1345;22628;-76
2022/09/01 07:12:22;;;;;;;4.00;0.50;;;;;;;20.95;45.61;101025.70;83574;1346;22651;-73
2022/09/01 07:14:37;;;;;;;1.10;0.50;;;;;;;21.16;45.14;101031.84;83555;1343;22700;-71
2022/09/01 07:16:51;;;;;;;1.40;0.40;;;;;;;21.32;45.37;101027.88;83521;1345;22624;-76
2022/09/01 07:19:03;;;;;;;0.80;0.60;;;;;;;21.49;45.74;101023.42;83511;1346;22625;-77
2022/09/01 07:21:15;;;;;;;0.60;0.40;;;;;;;21.60;43.97;101027.98;83472;1346;22628;-77
2022/09/01 07:23:28;;;;;;;0.50;0.20;;;;;;;21.49;43.48;101024.70;83546;1345;23951;-74
2022/09/01 07:25:44;;;;;;;2.50;0.50;;;;;;;21.43;43.76;101022.84;83524;1345;22595;-76
2022/09/01 07:28:05;;;;;;;3.40;0.40;;;;;;;21.50;43.74;101021.06;83532;1347;22735;-76
2022/09/01 07:30:32;;;;;;;0.50;0.50;;;;;;;21.63;43.19;101024.70;83540;1346;22731;-78
2022/09/01 07:33:00;;;;;;;2.50;0.50;;;;;;;21.73;43.80;101024.65;83542;1344;22614;-76
2022/09/01 07:35:17;;;;;;;1.10;0.50;;;;;;;21.90;43.20;101020.36;83541;1343;23214;-75
2022/09/01 07:37:42;;;;;;;1.00;0.40;;;;;;;22.08;42.97;101024.14;83542;1346;22615;-77
2022/09/01 07:40:11;;;;;;;1.20;0.60;;;;;;;22.27;42.74;101025.96;83555;1347;22880;-74
2022/09/01 07:42:29;;;;;;;1.30;0.70;;;;;;;22.53;42.58;101026.11;83445;1346;22712;-77
2022/09/01 07:44:46;;;;;;;2.20;0.50;;;;;;;22.73;42.47;101027.38;83551;1346;24266;-76
2022/09/01 07:47:02;;;;;;;2.30;0.50;;;;;;;23.06;43.15;101022.41;83564;1345;22725;-78
2022/09/01 07:49:19;;;;;;;1.50;0.60;;;;;;;23.65;41.21;101018.96;83523;1346;23066;-79
2022/09/01 07:51:38;;;;;;;5.10;0.70;;;;;;;24.26;41.52;101015.05;83560;1341;22619;-76
2022/09/01 07:53:50;;;;;;;1.40;0.50;;;;;;;25.27;40.39;101012.84;83569;1345;22606;-76
2022/09/01 07:56:05;;;;;;;1.70;0.70;;;;;;;26.22;39.22;101018.12;83489;1348;26685;-76
2022/09/01 07:58:16;;;;;;;3.50;0.70;;;;;;;26.97;36.59;101017.35;83531;1345;22962;-76
2022/09/01 08:00:30;;;;;;;1.60;0.40;;;;;;;27.44;36.06;101018.39;83439;1341;22789;-75
2022/09/01 08:02:45;;;;;;;1.60;0.50;;;;;;;28.07;33.65;101017.45;83570;1346;24435;-78
2022/09/01 08:04:58;;;;;;;1.40;0.60;;;;;;;27.69;32.96;101017.87;83537;1342;24184;-78
2022/09/01 08:07:17;;;;;;;0.90;0.40;;;;;;;27.38;33.94;101019.45;83595;1344;22910;-77
2022/09/01 08:09:33;;;;;;;1.70;0.70;;;;;;;27.54;33.87;101012.52;83491;1346;22612;-77
2022/09/01 08:11:55;;;;;;;0.90;0.60;;;;;;;27.89;33.28;101010.59;83515;1341;22708;-77
2022/09/01 08:14:19;;;;;;;1.20;0.30;;;;;;;28.30;32.82;101007.39;83527;1344;22861;-79
2022/09/01 08:16:39;;;;;;;1.00;0.40;;;;;;;28.89;32.05;101008.42;83535;1339;24468;-76
2022/09/01 08:19:17;;;;;;;1.30;0.80;;;;;;;29.17;31.08;101005.50;83536;1344;22872;-77
2022/09/01 08:21:39;;;;;;;0.70;0.50;;;;;;;28.24;29.95;101012.44;83502;1346;22666;-74
2022/09/01 08:23:57;;;;;;;4.30;1.30;;;;;;;27.02;31.43;101020.07;83528;1346;22639;-74
2022/09/01 08:26:24;;;;;;;3.00;1.20;;;;;;;26.10;32.74;101020.45;83535;1344;25257;-76
2022/09/01 08:28:45;;;;;;;1.40;0.70;;;;;;;25.28;34.10;101022.01;83551;1346;22622;-77
2022/09/01 08:30:58;;;;;;;3.70;0.60;;;;;;;24.66;34.76;101023.03;83506;1346;25584;-74
2022/09/01 08:33:10;;;;;;;1.00;0.50;;;;;;;23.99;35.29;101025.48;83526;1345;22831;-68
2022/09/01 08:35:20;;;;;;;1.90;0.60;;;;;;;23.45;36.20;101020.35;83532;1345;22768;-69
2022/09/01 08:37:31;;;;;;;0.90;0.60;;;;;;;23.02;36.97;101022.27;83555;1341;22665;-73
2022/09/01 08:39:45;;;;;;;0.90;0.50;;;;;;;22.85;36.92;101022.88;83530;1344;24296;-70
2022/09/01 08:42:00;;;;;;;0.30;0.30;;;;;;;23.35;36.99;101020.11;83523;1344;25339;-74
2022/09/01 08:44:21;;;;;;;0.30;0.30;;;;;;;24.00;36.74;101017.77;83519;1344;22626;-74
2022/09/01 08:46:35;;;;;;;1.00;0.30;;;;;;;24.95;36.53;101012.23;83544;1342;22624;-70
2022/09/01 08:48:46;;;;;;;0.60;0.20;;;;;;;26.07;35.08;101011.59;83572;1342;22619;-70
2022/09/01 08:51:09;;;;;;;1.40;0.30;;;;;;;26.28;33.19;101009.28;83548;1344;22622;-68
2022/09/01 08:53:26;;;;;;;0.90;0.50;;;;;;;26.10;33.05;101013.84;83546;1344;22766;-72
2022/09/01 08:55:43;;;;;;;6.40;0.90;;;;;;;26.68;33.49;101011.54;83573;1344;25491;-74
2022/09/01 08:57:54;;;;;;;1.80;0.40;;;;;;;27.41;32.75;101009.73;83577;1346;22631;-73
2022/09/01 09:00:08;;;;;;;1.40;0.50;;;;;;;27.61;32.19;101009.16;83364;1347;22635;-73
2022/09/01 09:02:38;;;;;;;4.50;0.30;;;;;;;27.13;31.74;101013.83;83474;1345;22654;-70
2022/09/01 09:05:05;;;;;;;1.40;0.30;;;;;;;27.22;32.38;101011.01;83539;1345;22622;-70
2022/09/01 09:07:22;;;;;;;0.40;0.40;;;;;;;27.96;31.79;101001.33;83533;1345;24784;-73
2022/09/01 09:09:40;;;;;;;1.60;0.80;;;;;;;27.88;31.10;100998.55;83559;1345;24847;-73
2022/09/01 09:12:09;;;;;;;0.60;0.60;;;;;;;27.42;31.24;100999.02;83595;1338;22751;-73
2022/09/01 09:14:33;;;;;;;0.80;0.40;;;;;;;26.72;31.34;101005.45;83526;1345;25516;-74
2022/09/01 09:16:56;;;;;;;2.30;0.50;;;;;;;25.74;32.14;101008.19;83542;1344;22616;-74
2022/09/01 09:19:13;;;;;;;1.60;0.70;;;;;;;24.91;33.78;101006.38;83462;1344;22621;-73
2022/09/01 09:21:27;;;;;;;1.40;0.50;;;;;;;24.46;34.71;101005.52;83585;1344;25504;-70
2022/09/01 09:23:39;;;;;;;2.20;0.50;;;;;;;24.20;35.93;101003.45;83447;1344;22773;-69
2022/09/01 09:25:52;;;;;;;2.30;0.30;;;;;;;24.11;35.97;101001.71;83530;1344;22622;-69
2022/09/01 09:28:08;;;;;;;1.30;0.40;;;;;;;24.10;36.22;100997.15;83543;1346;22822;-74
2022/09/01 09:30:23;;;;;;;0.70;0.40;;;;;;;24.03;36.23;100999.54;83543;1344;25399;-74
2022/09/01 09:35:21;;;;;;;1.70;0.40;;;;;;;24.68;37.02;100993.05;81898;1369;545411;-70
2022/09/01 09:37:39;;;;;;;0.90;0.40;;;;;;;24.99;36.82;100988.73;84206;1339;25314;-69
2022/09/01 09:40:01;;;;;;;0.60;0.30;;;;;;;25.17;35.69;100987.77;84591;1329;22700;-68
2022/09/01 09:42:16;;;;;;;1.00;0.40;;;;;;;25.18;35.72;100984.67;84578;1331;22594;-74
2022/09/01 09:44:29;;;;;;;1.50;0.50;;;;;;;25.30;36.15;100982.17;84596;1332;23996;-73
2022/09/01 09:46:41;;;;;;;2.00;0.40;;;;;;;25.41;35.85;100983.51;84603;1332;23078;-71
2022/09/01 09:48:53;;;;;;;1.00;0.30;;;;;;;25.45;35.18;100985.78;84175;1332;653188;-69
2022/09/01 09:51:20;;;;;;;1.00;0.60;;;;;;;25.58;34.35;100983.77;84639;1330;22620;-69
2022/09/01 09:53:35;;;;;;;0.30;0.20;;;;;;;25.64;34.18;100984.67;84664;1329;25443;-70
2022/09/01 09:55:59;;;;;;;0.50;0.20;;;;;;;25.75;34.16;100984.55;84575;1332;22583;-70
2022/09/01 09:58:16;;;;;;;0.20;0.20;;;;;;;26.06;33.17;100990.09;84569;1333;22616;-70
2022/09/01 10:00:29;;;;;;;1.20;0.20;;;;;;;25.99;31.76;100985.19;84621;1329;22666;-68
2022/09/01 10:02:43;;;;;;;0.30;0.20;;;;;;;25.75;31.87;100986.71;84638;1329;22608;-72
2022/09/01 10:04:53;;;;;;;0.30;0.30;;;;;;;25.50;31.93;100985.56;84579;1333;22613;-74
2022/09/01 10:07:05;;;;;;;1.30;0.60;;;;;;;25.10;32.03;100984.70;84621;1329;23143;-73
2022/09/01 10:09:38;;;;;;;0.50;0.20;;;;;;;24.89;32.94;100989.60;84560;1329;22593;-73
2022/09/01 10:11:51;;;;;;;0.40;0.30;;;;;;;24.60;32.82;100994.31;84588;1329;22647;-70
2022/09/01 10:14:01;;;;;;;0.40;0.30;;;;;;;24.33;33.83;100989.70;84583;1331;22807;-69
2022/09/01 10:16:27;;;;;;;0.70;0.30;;;;;;;24.34;35.15;100988.13;84670;1329;22819;-69
2022/09/01 10:18:43;;;;;;;2.90;0.40;;;;;;;24.53;35.18;100993.30;84653;1332;22587;-74
2022/09/01 10:20:57;;;;;;;2.00;0.30;;;;;;;24.62;35.16;100988.54;84641;1325;23066;-73
2022/09/01 10:23:10;;;;;;;0.50;0.20;;;;;;;24.69;34.97;100985.23;84840;1326;22593;-68
2022/09/01 10:25:26;;;;;;;1.90;0.30;;;;;;;24.57;34.41;100989.92;84808;1322;22738;-69
2022/09/01 10:27:37;;;;;;;0.90;0.40;;;;;;;24.50;34.30;100988.56;84793;1325;23933;-69
2022/09/01 10:29:48;;;;;;;1.00;0.30;;;;;;;24.38;34.19;100989.37;84686;1329;25280;-73
2022/09/01 10:31:57;;;;;;;3.70;0.30;;;;;;;24.22;34.56;100987.39;84795;1322;22708;-74
2022/09/01 10:34:15;;;;;;;0.50;0.30;;;;;;;23.95;34.04;100990.77;84766;1326;24087;-75
2022/09/01 10:36:28;;;;;;;2.70;0.40;;;;;;;23.76;34.90;100992.00;84765;1326;24200;-74
2022/09/01 10:38:38;;;;;;;0.80;0.30;;;;;;;23.60;34.40;100990.62;84811;1326;22655;-75
2022/09/01 10:41:05;;;;;;;0.70;0.40;;;;;;;23.48;34.39;100988.47;84697;1328;25626;-73
2022/09/01 10:43:36;;;;;;;2.30;0.40;;;;;;;23.39;34.76;100989.70;84796;1327;25291;-75
2022/09/01 10:45:47;;;;;;;0.30;0.30;;;;;;;23.31;34.34;100982.54;84803;1326;22590;-76
2022/09/01 10:48:13;;;;;;;0.60;0.30;;;;;;;23.34;35.38;100980.98;84715;1329;22858;-75
2022/09/01 10:50:33;;;;;;;0.80;0.60;;;;;;;23.44;35.10;100984.45;84731;1328;22600;-75
2022/09/01 10:52:59;;;;;;;;;;;;;;;23.34;34.59;100986.33;84788;1326;22557;-76